Airfield :
LOGIN :

Register | Disclaimer

   EN    FR    IT 

 










Legend :    VFR   Marginal VFR   IFR   Intensive IFR   Very Intensive IFR
Visi :
Ceiling :
>= 8 km
>= 3000ft
5 to 8 km
1000 to 3000 ft
1500m to 5 km
500 to 1000 ft
800 to 1500m
200 to 500 ft
< 800m
< 200 ft
Symbols :   Thunderstorms  Fog  Heavy snow  Heavy precipitations  Wind > 20 kt
SIGMETs :     Misc.  Thunderstorms  Icing  Turbulence  Mountain Waves  Volcanic Ashes







- Airport Elevation : 249 ft


EGOS - RAF Shawbury

CURRENT METAR :
  • 201450Z 03011KT 9999 -RA BKN018 OVC050 05/03 Q1009 WHT TEMPO 7000 RA WHT

EXPIRED METARs :
  • 201350Z 04009KT 9999 -RA BKN016 OVC050 05/04 Q1010 WHT TEMPO 7000 RA WHT
  • 201250Z 02012KT 9999 FEW012 SCT020 BKN050 06/03 Q1010 WHT NOSIG

TAF TAF EGOS
Valid from the 20 at 15:00 until the 21 at 00:00 UTC


201358Z 2015/2024 03010KT 9999 FEW012 BKN030
BECMG 2015/2018 BKN020
TEMPO 2015/2018 04012G22KT 7000 -RADZ SCT014 BKN020
PROB30
TEMPO 2018/2024 -SHRA SCT012 BKN020
No reported NOTAMs for that airfield.
1 SIGMET reported for the London FIR (EGTT) :
 
Severe mountain waves
EGTT SIGMET 02 VALID 201300/201700 EGRR
EGTT LONDON FIR SEV MTW FCST WI N5322 W00134 - N5149 W00328 - N5130 W00504 - N5500 W00447 - N5500 W00220 - N5322 W00134 FL030/120 STNR NC=



MET'MAP, your aeronautical weather chart ! - Copyright ORBIFLY December 2007 - Disclaimer

ORBIFLY MET'MAP TEAM :

Programming & Development : Alexandra Zaïnal
Concept & Development : Baudouin d'Aumeries
Co-Development & Prog : Marc-Olivier Méhu
Technical & hardware support : Manuel Goepfert

Contact : metmap@orbifly.com




SOURCES & CREDITS :

   NOAA